Time;durP1;ratioP1;P1;durP2;ratioP2;P2;SDS_P1;SDS_P2;PMS_P1;PMS_P2;Temp;Humidity;BMP_temperature;BMP_pressure;BME280_temperature;BME280_humidity;BME280_pressure;Samples;Min_cycle;Max_cycle;Signal;HPM_P1;HPM_P2
2023/08/24 00:00:16;;;;;;;;;;;18.00;99.90;;;;;;4997162;28;19926;-43
2023/08/24 00:02:43;;;;;;;;;;;18.00;99.90;;;;;;5016130;28;19937;-44
2023/08/24 00:05:09;;;;;;;;;;;17.90;99.90;;;;;;5017577;28;19947;-44
2023/08/24 00:07:36;;;;;;;;;;;17.90;99.90;;;;;;5016071;28;19979;-43
2023/08/24 00:10:03;;;;;;;;;;;17.90;99.90;;;;;;4997136;28;19935;-43
2023/08/24 00:12:30;;;;;;;;;;;17.80;99.90;;;;;;5021212;28;19925;-42
2023/08/24 00:14:57;;;;;;;;;;;17.80;99.90;;;;;;5015715;28;20054;-44
2023/08/24 00:17:26;;;;;;;;;;;17.80;99.90;;;;;;5025627;28;20355;-44
2023/08/24 00:19:52;;;;;;;;;;;17.70;99.90;;;;;;5025775;28;19934;-43
2023/08/24 00:22:19;;;;;;;;;;;17.70;99.90;;;;;;5000679;28;19932;-43
2023/08/24 00:24:46;;;;;;;;;;;17.70;99.90;;;;;;4996035;28;20410;-42
2023/08/24 00:27:13;;;;;;;;;;;17.60;99.90;;;;;;5030497;28;19947;-44
2023/08/24 00:29:40;;;;;;;;;;;17.60;99.90;;;;;;5018250;28;19955;-43
2023/08/24 00:32:08;;;;;;;;;;;17.60;99.90;;;;;;5005671;28;19925;-43
2023/08/24 00:34:36;;;;;;;;;;;17.50;99.90;;;;;;5027138;28;19959;-42
2023/08/24 00:37:02;;;;;;;;;;;17.50;99.90;;;;;;5014028;28;19934;-43
2023/08/24 00:39:29;;;;;;;;;;;17.50;99.90;;;;;;5018256;28;19925;-44
2023/08/24 00:41:56;;;;;;;;;;;17.50;99.90;;;;;;5006285;28;20443;-44
2023/08/24 00:44:22;;;;;;;;;;;17.50;99.90;;;;;;5028987;28;19945;-43
2023/08/24 00:46:49;;;;;;;;;;;17.40;99.90;;;;;;5031325;28;19932;-43
2023/08/24 00:49:16;;;;;;;;;;;17.40;99.90;;;;;;5031662;28;19925;-43
2023/08/24 00:51:44;;;;;;;;;;;17.40;99.90;;;;;;5013843;28;19933;-44
2023/08/24 00:54:11;;;;;;;;;;;17.40;99.90;;;;;;5014831;28;19979;-43
2023/08/24 00:56:37;;;;;;;;;;;17.40;99.90;;;;;;5013591;28;20411;-43
2023/08/24 00:59:04;;;;;;;;;;;17.30;99.90;;;;;;5000397;28;19937;-44
2023/08/24 01:01:31;;;;;;;;;;;17.40;99.90;;;;;;5010150;28;20009;-44
2023/08/24 01:03:57;;;;;;;;;;;17.30;99.90;;;;;;5003638;28;19949;-44
2023/08/24 01:06:24;;;;;;;;;;;17.30;99.90;;;;;;4996487;28;20422;-43
2023/08/24 01:08:54;;;;;;;;;;;17.30;99.90;;;;;;5023626;28;20366;-44
2023/08/24 01:11:22;;;;;;;;;;;17.30;99.90;;;;;;5009453;28;19925;-43
2023/08/24 01:13:51;;;;;;;;;;;17.30;99.90;;;;;;5029306;28;19938;-43
2023/08/24 01:16:19;;;;;;;;;;;17.30;99.90;;;;;;5013316;28;20337;-43
2023/08/24 01:18:46;;;;;;;;;;;17.30;99.90;;;;;;5026944;28;19943;-43
2023/08/24 01:21:13;;;;;;;;;;;17.30;99.90;;;;;;4997750;28;19932;-44
2023/08/24 01:23:42;;;;;;;;;;;17.30;99.90;;;;;;5006609;28;19932;-43
2023/08/24 01:26:14;;;;;;;;;;;17.30;99.90;;;;;;5010255;28;19968;-43
2023/08/24 01:28:41;;;;;;;;;;;17.30;99.90;;;;;;5024871;28;20443;-43
2023/08/24 01:31:08;;;;;;;;;;;17.30;99.90;;;;;;5004716;28;19925;-43
2023/08/24 01:33:34;;;;;;;;;;;17.30;99.90;;;;;;5013568;28;19956;-43
2023/08/24 01:36:01;;;;;;;;;;;17.30;99.90;;;;;;4995777;28;19925;-43
2023/08/24 01:38:28;;;;;;;;;;;17.30;99.90;;;;;;5018531;28;19960;-44
2023/08/24 01:40:58;;;;;;;;;;;17.30;99.90;;;;;;5015469;28;19925;-43
2023/08/24 01:43:27;;;;;;;;;;;17.30;99.90;;;;;;5010224;28;19936;-44
2023/08/24 01:45:54;;;;;;;;;;;17.30;99.90;;;;;;5029426;28;20318;-42
2023/08/24 01:48:21;;;;;;;;;;;17.30;99.90;;;;;;5004838;28;19987;-43
2023/08/24 01:50:47;;;;;;;;;;;17.20;99.90;;;;;;5012303;28;19999;-43
2023/08/24 01:53:14;;;;;;;;;;;17.20;99.90;;;;;;5023315;28;19994;-43
2023/08/24 01:55:41;;;;;;;;;;;17.30;99.90;;;;;;4996295;28;19933;-44
2023/08/24 01:58:09;;;;;;;;;;;17.20;99.90;;;;;;5031982;28;20380;-43
2023/08/24 02:00:37;;;;;;;;;;;17.20;99.90;;;;;;5015143;28;19976;-43
2023/08/24 02:03:03;;;;;;;;;;;17.20;99.90;;;;;;5009187;28;19955;-43
2023/08/24 02:05:30;;;;;;;;;;;17.20;99.90;;;;;;5026276;28;19935;-43
2023/08/24 02:07:57;;;;;;;;;;;17.20;99.90;;;;;;5001627;28;19968;-43
2023/08/24 02:10:24;;;;;;;;;;;17.20;99.90;;;;;;5028197;28;19933;-44
2023/08/24 02:12:51;;;;;;;;;;;17.20;99.90;;;;;;5025667;28;19979;-43
2023/08/24 02:15:18;;;;;;;;;;;17.20;99.90;;;;;;5033646;28;20339;-43
2023/08/24 02:17:46;;;;;;;;;;;17.20;99.90;;;;;;5034113;28;20281;-44
2023/08/24 02:20:13;;;;;;;;;;;17.20;99.90;;;;;;5028732;28;20282;-44
2023/08/24 02:22:39;;;;;;;;;;;17.20;99.90;;;;;;5033728;28;20376;-43
2023/08/24 02:25:06;;;;;;;;;;;17.20;99.90;;;;;;5014128;28;19937;-43
2023/08/24 02:27:33;;;;;;;;;;;17.10;99.90;;;;;;5015862;28;19942;-43
2023/08/24 02:30:00;;;;;;;;;;;17.10;99.90;;;;;;5033649;28;19928;-43
2023/08/24 02:32:27;;;;;;;;;;;17.10;99.90;;;;;;5024238;28;19966;-43
2023/08/24 02:34:55;;;;;;;;;;;17.10;99.90;;;;;;5025319;28;19942;-42
2023/08/24 02:37:21;;;;;;;;;;;17.10;99.90;;;;;;5017617;28;19944;-44
2023/08/24 02:39:48;;;;;;;;;;;17.10;99.90;;;;;;5034531;28;19939;-42
2023/08/24 02:42:15;;;;;;;;;;;17.10;99.90;;;;;;5016870;28;20007;-43
2023/08/24 02:44:41;;;;;;;;;;;17.10;99.90;;;;;;5006678;28;20003;-43
2023/08/24 02:47:08;;;;;;;;;;;17.10;99.90;;;;;;5016280;28;19942;-43
2023/08/24 02:49:35;;;;;;;;;;;17.10;99.90;;;;;;5012882;28;19960;-43
2023/08/24 02:52:03;;;;;;;;;;;17.10;99.90;;;;;;5015350;28;19929;-43
2023/08/24 02:54:30;;;;;;;;;;;17.10;99.90;;;;;;5015889;28;19942;-43
2023/08/24 02:56:56;;;;;;;;;;;17.10;99.90;;;;;;5015988;28;19971;-43
2023/08/24 02:59:23;;;;;;;;;;;17.10;99.90;;;;;;5018561;28;19933;-43
2023/08/24 03:01:50;;;;;;;;;;;17.10;99.90;;;;;;5005028;28;20350;-43
2023/08/24 03:04:16;;;;;;;;;;;17.10;99.90;;;;;;5033157;28;19932;-43
2023/08/24 03:06:44;;;;;;;;;;;17.10;99.90;;;;;;5016473;28;19952;-44
2023/08/24 03:09:12;;;;;;;;;;;17.10;99.90;;;;;;5030287;28;19986;-43
2023/08/24 03:11:39;;;;;;;;;;;17.10;99.90;;;;;;5014331;28;19939;-43
2023/08/24 03:14:05;;;;;;;;;;;17.10;99.90;;;;;;5023266;28;19940;-43
2023/08/24 03:16:32;;;;;;;;;;;17.10;99.90;;;;;;5015814;28;20393;-43
2023/08/24 03:18:59;;;;;;;;;;;17.10;99.90;;;;;;4996570;28;20049;-43
2023/08/24 03:21:25;;;;;;;;;;;17.10;99.90;;;;;;5022984;28;20354;-43
2023/08/24 03:23:52;;;;;;;;;;;17.00;99.90;;;;;;5013523;28;19975;-43
2023/08/24 03:26:23;;;;;;;;;;;17.00;99.90;;;;;;5032366;28;19936;-44
2023/08/24 03:28:49;;;;;;;;;;;17.00;99.90;;;;;;5030236;28;19932;-43
2023/08/24 03:31:16;;;;;;;;;;;16.90;99.90;;;;;;5025729;28;19990;-43
2023/08/24 03:33:43;;;;;;;;;;;17.00;99.90;;;;;;5033718;28;20435;-43
2023/08/24 03:36:09;;;;;;;;;;;16.90;99.90;;;;;;5014889;28;19925;-43
2023/08/24 03:38:36;;;;;;;;;;;16.90;99.90;;;;;;5010980;28;20364;-44
2023/08/24 03:41:02;;;;;;;;;;;16.90;99.90;;;;;;5023423;28;20361;-43
2023/08/24 03:43:31;;;;;;;;;;;16.90;99.90;;;;;;5017542;28;20392;-43
2023/08/24 03:45:58;;;;;;;;;;;16.90;99.90;;;;;;5027030;28;19933;-44
2023/08/24 03:48:25;;;;;;;;;;;16.80;99.90;;;;;;5003143;28;19999;-43
2023/08/24 03:50:54;;;;;;;;;;;16.80;99.90;;;;;;5033087;28;19982;-42
2023/08/24 03:53:21;;;;;;;;;;;16.80;99.90;;;;;;5028599;28;19956;-43
2023/08/24 03:55:48;;;;;;;;;;;16.80;99.90;;;;;;5002065;28;19925;-43
2023/08/24 03:58:15;;;;;;;;;;;16.80;99.90;;;;;;5014995;28;19940;-44
2023/08/24 04:00:43;;;;;;;;;;;16.80;99.90;;;;;;5019938;28;19946;-43
2023/08/24 04:03:10;;;;;;;;;;;16.70;99.90;;;;;;5011003;28;19933;-43
2023/08/24 04:05:36;;;;;;;;;;;16.70;99.90;;;;;;5001929;28;19966;-44
2023/08/24 04:08:04;;;;;;;;;;;16.70;99.90;;;;;;5032016;28;20404;-43
2023/08/24 04:10:30;;;;;;;;;;;16.70;99.90;;;;;;5024059;28;19955;-43
2023/08/24 04:12:57;;;;;;;;;;;16.60;99.90;;;;;;5008605;28;19925;-43
2023/08/24 04:15:24;;;;;;;;;;;16.60;99.90;;;;;;5014991;28;19995;-44
2023/08/24 04:17:52;;;;;;;;;;;16.60;99.90;;;;;;5011559;28;20385;-43
2023/08/24 04:20:18;;;;;;;;;;;16.50;99.90;;;;;;5025359;28;19936;-43
2023/08/24 04:22:45;;;;;;;;;;;16.50;99.90;;;;;;5015019;28;19930;-44
2023/08/24 04:25:12;;;;;;;;;;;16.40;99.90;;;;;;5028277;28;20256;-44
2023/08/24 04:27:38;;;;;;;;;;;16.40;99.90;;;;;;5012481;28;20373;-43
2023/08/24 04:30:11;;;;;;;;;;;16.40;99.90;;;;;;5031596;28;19964;-42
2023/08/24 04:32:38;;;;;;;;;;;16.40;99.90;;;;;;5004001;28;19946;-43
2023/08/24 04:35:06;;;;;;;;;;;16.40;99.90;;;;;;5030100;28;19982;-43
2023/08/24 04:37:33;;;;;;;;;;;16.40;99.90;;;;;;5019096;28;20271;-43
2023/08/24 04:40:00;;;;;;;;;;;16.40;99.90;;;;;;5011356;28;19971;-43
2023/08/24 04:42:26;;;;;;;;;;;16.30;99.90;;;;;;5012768;28;19950;-44
2023/08/24 04:44:53;;;;;;;;;;;16.30;99.90;;;;;;5014610;28;20284;-43
2023/08/24 04:47:20;;;;;;;;;;;16.30;99.90;;;;;;5025502;28;20351;-43
2023/08/24 04:49:46;;;;;;;;;;;16.30;99.90;;;;;;4998205;28;19958;-43
2023/08/24 04:52:15;;;;;;;;;;;16.30;99.90;;;;;;4999582;28;19935;-44
2023/08/24 04:54:41;;;;;;;;;;;16.30;99.90;;;;;;5008548;28;19994;-43
2023/08/24 04:57:09;;;;;;;;;;;16.30;99.90;;;;;;5027068;28;20011;-43
2023/08/24 04:59:35;;;;;;;;;;;16.20;99.90;;;;;;5028689;28;19944;-43
2023/08/24 05:02:02;;;;;;;;;;;16.20;99.90;;;;;;5030319;28;19968;-43
2023/08/24 05:04:29;;;;;;;;;;;16.20;99.90;;;;;;5005126;28;19959;-43
2023/08/24 05:06:55;;;;;;;;;;;16.30;99.90;;;;;;5017652;28;19947;-43
2023/08/24 05:09:24;;;;;;;;;;;16.20;99.90;;;;;;5012997;28;19976;-44
2023/08/24 05:11:50;;;;;;;;;;;16.20;99.90;;;;;;5021089;28;19993;-43
2023/08/24 05:14:17;;;;;;;;;;;16.20;99.90;;;;;;5024408;28;20349;-43
2023/08/24 05:16:44;;;;;;;;;;;16.20;99.90;;;;;;5001380;28;20005;-43
2023/08/24 05:19:10;;;;;;;;;;;16.20;99.90;;;;;;5013611;28;19967;-42
2023/08/24 05:21:37;;;;;;;;;;;16.30;99.90;;;;;;5013754;28;19973;-44
2023/08/24 05:24:04;;;;;;;;;;;16.20;99.90;;;;;;5031630;28;20352;-43
2023/08/24 05:26:32;;;;;;;;;;;16.30;99.90;;;;;;5002957;28;20323;-43
2023/08/24 05:28:59;;;;;;;;;;;16.30;99.90;;;;;;5022299;28;20045;-44
2023/08/24 05:31:26;;;;;;;;;;;16.30;99.90;;;;;;5024131;28;20013;-44
2023/08/24 05:33:52;;;;;;;;;;;16.30;99.90;;;;;;5026940;28;20381;-43
2023/08/24 05:36:19;;;;;;;;;;;16.30;99.90;;;;;;5017697;28;19979;-45
2023/08/24 05:38:47;;;;;;;;;;;16.30;99.90;;;;;;5020337;28;19963;-43
2023/08/24 05:41:14;;;;;;;;;;;16.40;99.90;;;;;;5026448;28;20284;-43
2023/08/24 05:43:42;;;;;;;;;;;16.40;99.90;;;;;;5021823;28;19940;-43
2023/08/24 05:46:08;;;;;;;;;;;16.40;99.90;;;;;;5033879;28;20377;-43
2023/08/24 05:48:35;;;;;;;;;;;16.40;99.90;;;;;;5017585;28;19948;-43
2023/08/24 05:51:02;;;;;;;;;;;16.40;99.90;;;;;;5034816;28;19955;-43
2023/08/24 05:53:28;;;;;;;;;;;16.50;99.90;;;;;;5023857;28;20000;-43
2023/08/24 05:55:58;;;;;;;;;;;16.50;99.90;;;;;;5017329;28;19948;-43
2023/08/24 05:58:24;;;;;;;;;;;16.50;99.90;;;;;;5019659;28;20362;-42
2023/08/24 06:00:57;;;;;;;;;;;16.50;99.90;;;;;;5013462;28;19936;-42
2023/08/24 06:03:24;;;;;;;;;;;16.60;99.90;;;;;;5028078;28;19963;-43
2023/08/24 06:05:51;;;;;;;;;;;16.70;99.90;;;;;;5005381;28;19926;-43
2023/08/24 06:08:17;;;;;;;;;;;16.80;99.90;;;;;;5009098;28;19939;-43
2023/08/24 06:10:44;;;;;;;;;;;16.90;99.90;;;;;;5019630;28;20359;-43
2023/08/24 06:13:11;;;;;;;;;;;17.00;99.90;;;;;;5030702;28;19964;-41
2023/08/24 06:15:37;;;;;;;;;;;17.10;99.90;;;;;;5034677;28;20372;-43
2023/08/24 06:18:05;;;;;;;;;;;17.20;99.90;;;;;;5003009;28;19946;-43
2023/08/24 06:20:32;;;;;;;;;;;17.30;99.90;;;;;;5012357;28;19983;-42
2023/08/24 06:22:59;;;;;;;;;;;17.40;99.90;;;;;;5030709;28;19946;-43
2023/08/24 06:25:26;;;;;;;;;;;17.50;99.90;;;;;;5034541;28;19925;-43
2023/08/24 06:27:52;;;;;;;;;;;17.60;99.90;;;;;;5027209;28;19964;-43
2023/08/24 06:30:19;;;;;;;;;;;17.80;99.90;;;;;;5021784;28;20411;-43
2023/08/24 06:32:46;;;;;;;;;;;17.90;99.90;;;;;;5005343;28;19947;-43
2023/08/24 06:35:15;;;;;;;;;;;18.00;99.90;;;;;;5007547;28;19925;-43
2023/08/24 06:37:41;;;;;;;;;;;18.20;99.90;;;;;;5000898;28;19925;-42
2023/08/24 06:40:09;;;;;;;;;;;18.30;99.90;;;;;;4997842;28;19940;-43
2023/08/24 06:42:36;;;;;;;;;;;18.30;99.90;;;;;;5013868;28;19950;-43
2023/08/24 06:45:02;;;;;;;;;;;18.30;99.90;;;;;;5014863;28;19982;-42
2023/08/24 06:47:29;;;;;;;;;;;18.40;99.90;;;;;;5027725;28;19932;-43
2023/08/24 06:49:56;;;;;;;;;;;18.40;99.90;;;;;;5023981;28;19959;-43
2023/08/24 06:52:24;;;;;;;;;;;18.50;99.90;;;;;;5024734;28;19945;-43
2023/08/24 06:54:53;;;;;;;;;;;18.50;99.90;;;;;;4999682;28;19943;-43
2023/08/24 06:57:20;;;;;;;;;;;18.50;99.90;;;;;;5031348;28;20281;-43
2023/08/24 06:59:46;;;;;;;;;;;18.60;99.90;;;;;;5009930;28;19950;-42
2023/08/24 07:02:13;;;;;;;;;;;18.70;99.90;;;;;;5014625;28;20170;-43
2023/08/24 07:04:40;;;;;;;;;;;18.80;99.90;;;;;;5012188;28;19987;-42
2023/08/24 07:07:07;;;;;;;;;;;18.90;99.90;;;;;;5007569;28;20438;-43
2023/08/24 07:09:35;;;;;;;;;;;19.10;99.90;;;;;;5003371;28;19940;-43
2023/08/24 07:12:02;;;;;;;;;;;19.20;99.90;;;;;;5023753;28;20043;-44
2023/08/24 07:14:29;;;;;;;;;;;19.30;99.90;;;;;;4998552;28;20003;-43
2023/08/24 07:16:55;;;;;;;;;;;19.40;99.90;;;;;;4997325;28;19956;-43
2023/08/24 07:19:22;;;;;;;;;;;19.50;99.90;;;;;;4998373;28;19950;-43
2023/08/24 07:21:49;;;;;;;;;;;19.60;99.90;;;;;;5005763;28;19946;-43
2023/08/24 07:24:17;;;;;;;;;;;19.80;99.90;;;;;;5016002;28;19948;-43
2023/08/24 07:26:45;;;;;;;;;;;19.90;99.90;;;;;;5017116;28;19925;-42
2023/08/24 07:29:11;;;;;;;;;;;20.00;99.90;;;;;;5033272;28;19928;-43
2023/08/24 07:31:38;;;;;;;;;;;20.20;99.90;;;;;;5026122;28;20381;-43
2023/08/24 07:34:05;;;;;;;;;;;20.30;99.90;;;;;;5025235;28;19983;-42
2023/08/24 07:36:32;;;;;;;;;;;20.40;99.90;;;;;;5026012;28;20336;-43
2023/08/24 07:38:59;;;;;;;;;;;20.60;99.90;;;;;;5014611;28;20397;-43
2023/08/24 07:41:26;;;;;;;;;;;20.70;99.90;;;;;;5032592;28;19944;-43
2023/08/24 07:43:53;;;;;;;;;;;20.80;99.90;;;;;;5012186;28;19957;-43
2023/08/24 07:46:20;;;;;;;;;;;20.90;99.90;;;;;;5006953;28;19980;-43
2023/08/24 07:48:47;;;;;;;;;;;21.00;99.90;;;;;;5026214;28;20229;-43
2023/08/24 07:51:14;;;;;;;;;;;21.10;99.90;;;;;;5001457;28;19965;-43
2023/08/24 07:53:40;;;;;;;;;;;21.20;99.90;;;;;;5011947;28;20401;-43
2023/08/24 07:56:07;;;;;;;;;;;21.30;99.90;;;;;;5010106;28;20374;-42
2023/08/24 07:58:34;;;;;;;;;;;21.50;99.90;;;;;;5009769;28;20049;-43
2023/08/24 08:01:02;;;;;;;;;;;21.70;99.90;;;;;;5024814;28;19964;-43
2023/08/24 08:03:30;;;;;;;;;;;21.80;99.90;;;;;;5001727;28;19940;-43
2023/08/24 08:05:58;;;;;;;;;;;21.90;99.90;;;;;;5015031;28;19995;-43
2023/08/24 08:08:24;;;;;;;;;;;22.00;99.90;;;;;;5024199;28;20015;-43
2023/08/24 08:10:58;;;;;;;;;;;22.10;99.90;;;;;;5030919;28;20381;-43
2023/08/24 08:13:24;;;;;;;;;;;22.20;99.90;;;;;;5026836;28;19948;-42
2023/08/24 08:15:51;;;;;;;;;;;22.20;99.90;;;;;;5010188;28;19966;-43
2023/08/24 08:18:19;;;;;;;;;;;22.40;99.90;;;;;;5010303;28;20387;-42
2023/08/24 08:20:46;;;;;;;;;;;22.50;99.90;;;;;;5020810;28;19939;-43
2023/08/24 08:23:12;;;;;;;;;;;22.60;99.90;;;;;;4997437;28;19925;-43
2023/08/24 08:25:42;;;;;;;;;;;22.70;99.90;;;;;;5019876;28;19973;-43
2023/08/24 08:28:09;;;;;;;;;;;22.80;99.90;;;;;;5023263;28;20327;-43
2023/08/24 08:30:35;;;;;;;;;;;23.00;99.90;;;;;;5014899;28;19944;-43
2023/08/24 08:33:02;;;;;;;;;;;23.10;99.90;;;;;;5023373;28;20428;-43
2023/08/24 08:35:30;;;;;;;;;;;23.30;99.90;;;;;;5025836;28;19925;-43
2023/08/24 08:37:57;;;;;;;;;;;23.40;99.90;;;;;;5026338;28;20371;-43
2023/08/24 08:40:28;;;;;;;;;;;23.50;99.90;;;;;;5028828;28;19943;-42
2023/08/24 08:42:56;;;;;;;;;;;23.60;99.90;;;;;;5029084;28;20047;-43
2023/08/24 08:45:22;;;;;;;;;;;23.60;99.90;;;;;;5033217;28;19936;-43
2023/08/24 08:47:49;;;;;;;;;;;23.70;99.90;;;;;;5021216;28;20220;-44
2023/08/24 08:50:16;;;;;;;;;;;23.80;99.90;;;;;;5025726;28;20316;-43
2023/08/24 08:52:44;;;;;;;;;;;23.90;99.90;;;;;;5010772;28;19925;-43
2023/08/24 08:55:11;;;;;;;;;;;24.10;99.90;;;;;;5006996;28;19969;-42
2023/08/24 08:57:39;;;;;;;;;;;24.20;99.90;;;;;;5022203;28;19970;-44
2023/08/24 09:00:07;;;;;;;;;;;24.40;99.90;;;;;;5006883;28;19940;-43
2023/08/24 09:02:34;;;;;;;;;;;24.50;99.90;;;;;;5023980;28;20523;-44
2023/08/24 09:05:00;;;;;;;;;;;24.50;99.90;;;;;;5015812;28;19961;-43
2023/08/24 09:07:27;;;;;;;;;;;24.60;99.90;;;;;;5012092;28;20387;-42
2023/08/24 09:09:55;;;;;;;;;;;24.50;99.90;;;;;;4994422;28;20018;-43
2023/08/24 09:12:22;;;;;;;;;;;24.50;99.90;;;;;;5000799;28;19963;-43
2023/08/24 09:14:48;;;;;;;;;;;24.50;99.90;;;;;;5027861;28;19978;-43
2023/08/24 09:17:22;;;;;;;;;;;24.50;99.90;;;;;;4995082;28;20251;-43
2023/08/24 09:19:50;;;;;;;;;;;24.60;99.90;;;;;;5020696;28;19944;-43
2023/08/24 09:22:16;;;;;;;;;;;24.60;99.90;;;;;;5017581;28;19956;-42
2023/08/24 09:24:43;;;;;;;;;;;24.60;99.90;;;;;;5014896;28;19940;-42
2023/08/24 09:27:16;;;;;;;;;;;24.70;99.90;;;;;;5012040;28;19948;-43
2023/08/24 09:29:43;;;;;;;;;;;24.70;99.90;;;;;;5006088;28;19961;-43
2023/08/24 09:32:10;;;;;;;;;;;24.90;99.90;;;;;;5013381;28;19956;-43
2023/08/24 09:34:37;;;;;;;;;;;24.90;99.90;;;;;;5012676;28;19932;-43
2023/08/24 09:37:04;;;;;;;;;;;24.90;99.90;;;;;;4995246;28;19940;-43
2023/08/24 09:39:31;;;;;;;;;;;24.90;99.90;;;;;;5018911;28;19932;-43
2023/08/24 09:42:02;;;;;;;;;;;24.90;99.90;;;;;;5015033;28;19983;-43
2023/08/24 09:44:30;;;;;;;;;;;24.90;99.90;;;;;;5030906;28;19929;-43
2023/08/24 09:46:57;;;;;;;;;;;24.90;99.90;;;;;;5012680;28;20381;-43
2023/08/24 09:49:26;;;;;;;;;;;24.90;99.90;;;;;;4994895;28;19932;-43
2023/08/24 09:51:55;;;;;;;;;;;24.90;99.90;;;;;;5014756;28;19932;-43
2023/08/24 09:54:22;;;;;;;;;;;24.80;99.90;;;;;;5029491;28;19931;-43
2023/08/24 09:56:49;;;;;;;;;;;24.70;99.90;;;;;;5031582;28;19963;-43
2023/08/24 09:59:17;;;;;;;;;;;24.70;99.90;;;;;;5032176;28;20303;-42
2023/08/24 10:01:47;;;;;;;;;;;24.70;99.90;;;;;;5014663;28;19929;-43
2023/08/24 10:04:13;;;;;;;;;;;24.70;99.90;;;;;;5013891;28;19961;-43
2023/08/24 10:06:40;;;;;;;;;;;24.60;99.90;;;;;;5009632;28;19925;-43
2023/08/24 10:09:07;;;;;;;;;;;24.60;99.90;;;;;;5025491;28;19929;-43
2023/08/24 10:11:36;;;;;;;;;;;24.60;99.90;;;;;;4994627;28;19932;-43
2023/08/24 10:14:07;;;;;;;;;;;24.50;99.90;;;;;;5017939;28;19979;-42
2023/08/24 10:16:33;;;;;;;;;;;24.50;99.90;;;;;;5028944;28;20018;-43
2023/08/24 10:19:02;;;;;;;;;;;24.50;99.90;;;;;;5025424;28;19933;-43
2023/08/24 10:21:29;;;;;;;;;;;24.50;99.90;;;;;;5014323;28;19977;-43
2023/08/24 10:23:55;;;;;;;;;;;24.40;99.90;;;;;;5009747;28;20373;-43
2023/08/24 10:26:22;;;;;;;;;;;24.40;99.90;;;;;;5035809;28;20313;-44
2023/08/24 10:28:49;;;;;;;;;;;24.40;99.90;;;;;;5031154;28;20475;-43
2023/08/24 10:31:15;;;;;;;;;;;24.40;99.90;;;;;;5034312;28;19925;-44
2023/08/24 10:33:44;;;;;;;;;;;24.30;99.90;;;;;;5016902;28;19933;-43
2023/08/24 10:36:13;;;;;;;;;;;24.30;99.90;;;;;;5035558;28;19925;-44
2023/08/24 10:38:41;;;;;;;;;;;24.40;99.90;;;;;;5015138;28;19999;-43
2023/08/24 10:41:08;;;;;;;;;;;24.40;99.90;;;;;;5016426;28;20389;-44
2023/08/24 10:43:35;;;;;;;;;;;24.40;99.90;;;;;;5015767;28;19933;-44
2023/08/24 10:46:03;;;;;;;;;;;24.40;99.90;;;;;;5016648;28;19929;-43
2023/08/24 10:48:30;;;;;;;;;;;24.40;99.90;;;;;;5035063;28;19991;-44
2023/08/24 10:51:16;;;;;;;;;;;24.40;99.90;;;;;;5016750;28;19979;-44
2023/08/24 10:53:44;;;;;;;;;;;24.30;99.90;;;;;;5021220;28;19996;-44
2023/08/24 10:56:11;;;;;;;;;;;24.40;99.90;;;;;;5032807;28;19945;-44
2023/08/24 10:58:38;;;;;;;;;;;24.40;99.90;;;;;;5034999;28;19929;-43
2023/08/24 11:01:05;;;;;;;;;;;24.40;99.90;;;;;;5035144;28;19925;-43
2023/08/24 11:03:31;;;;;;;;;;;24.40;99.90;;;;;;5005018;28;20377;-43
2023/08/24 11:05:58;;;;;;;;;;;24.50;99.90;;;;;;5006163;28;19943;-44
2023/08/24 11:08:32;;;;;;;;;;;24.50;99.90;;;;;;5034807;28;19932;-43
2023/08/24 11:11:00;;;;;;;;;;;24.60;99.90;;;;;;5034458;28;19963;-44
2023/08/24 11:13:27;;;;;;;;;;;24.60;99.90;;;;;;5021414;28;19956;-44
2023/08/24 11:15:57;;;;;;;;;;;24.60;99.90;;;;;;4999734;28;19967;-44
2023/08/24 11:18:25;;;;;;;;;;;24.60;99.90;;;;;;5029484;28;19987;-44
2023/08/24 11:20:52;;;;;;;;;;;24.60;99.90;;;;;;5015110;28;20023;-44
2023/08/24 11:23:19;;;;;;;;;;;24.70;99.90;;;;;;5007769;28;19967;-44
2023/08/24 11:25:45;;;;;;;;;;;24.70;99.90;;;;;;5014778;28;19933;-43
2023/08/24 11:28:14;;;;;;;;;;;24.70;99.90;;;;;;5015230;28;19984;-43
2023/08/24 11:30:41;;;;;;;;;;;24.80;99.90;;;;;;5014470;28;19940;-43
2023/08/24 11:33:08;;;;;;;;;;;24.80;99.90;;;;;;5014241;28;19959;-43
2023/08/24 11:35:37;;;;;;;;;;;24.80;99.90;;;;;;5034476;28;19967;-41
2023/08/24 11:38:04;;;;;;;;;;;24.80;99.90;;;;;;5034170;28;20018;-43
2023/08/24 11:40:31;;;;;;;;;;;24.90;99.90;;;;;;5034370;28;19994;-43
2023/08/24 11:42:57;;;;;;;;;;;24.90;99.90;;;;;;5028132;28;19989;-43
2023/08/24 11:45:25;;;;;;;;;;;25.00;99.90;;;;;;5034746;28;20284;-44
2023/08/24 11:47:53;;;;;;;;;;;25.00;99.90;;;;;;5014855;28;19961;-43
2023/08/24 11:50:20;;;;;;;;;;;25.10;99.90;;;;;;5016795;28;19967;-43
2023/08/24 11:52:46;;;;;;;;;;;25.10;99.90;;;;;;5014630;28;19975;-44
2023/08/24 11:55:13;;;;;;;;;;;25.20;99.90;;;;;;4997897;28;19930;-44
2023/08/24 11:57:40;;;;;;;;;;;25.20;99.90;;;;;;4996623;28;19966;-44
2023/08/24 12:00:07;;;;;;;;;;;25.20;99.90;;;;;;5014903;28;19959;-43
2023/08/24 12:02:37;;;;;;;;;;;25.20;99.90;;;;;;5002602;28;20032;-43
2023/08/24 12:05:06;;;;;;;;;;;25.20;99.90;;;;;;5033764;28;19970;-44
2023/08/24 12:07:33;;;;;;;;;;;25.20;99.90;;;;;;5033829;28;19925;-43
2023/08/24 12:10:00;;;;;;;;;;;25.30;99.90;;;;;;5032380;28;19928;-44
2023/08/24 12:12:28;;;;;;;;;;;25.40;99.90;;;;;;5015160;28;19932;-44
2023/08/24 12:14:57;;;;;;;;;;;25.40;99.90;;;;;;5016168;28;19946;-43
2023/08/24 12:17:24;;;;;;;;;;;25.40;99.90;;;;;;5005399;28;19960;-44
2023/08/24 12:19:58;;;;;;;;;;;25.50;99.90;;;;;;4996398;28;19929;-44
2023/08/24 12:22:25;;;;;;;;;;;25.50;99.90;;;;;;5016419;28;19955;-44
2023/08/24 12:24:51;;;;;;;;;;;25.60;99.90;;;;;;5033206;28;19963;-43
2023/08/24 12:27:18;;;;;;;;;;;25.60;99.90;;;;;;5031707;28;19929;-44
2023/08/24 12:29:45;;;;;;;;;;;25.70;99.90;;;;;;5020933;28;20340;-44
2023/08/24 12:32:12;;;;;;;;;;;25.70;99.90;;;;;;5004344;28;20004;-44
2023/08/24 12:34:38;;;;;;;;;;;25.70;99.90;;;;;;5015366;28;19995;-44
2023/08/24 12:37:06;;;;;;;;;;;25.70;99.90;;;;;;5032151;28;19936;-44
2023/08/24 12:39:35;;;;;;;;;;;25.60;99.90;;;;;;4999501;28;20373;-43
2023/08/24 12:42:02;;;;;;;;;;;25.60;99.90;;;;;;5023797;28;19982;-44
2023/08/24 12:44:29;;;;;;;;;;;25.60;99.90;;;;;;5024920;28;19968;-43
2023/08/24 12:46:55;;;;;;;;;;;25.60;99.90;;;;;;4997033;28;19933;-44
2023/08/24 12:49:22;;;;;;;;;;;25.70;99.90;;;;;;5030030;28;19929;-43
2023/08/24 12:51:49;;;;;;;;;;;25.70;99.90;;;;;;5015692;28;19926;-44
2023/08/24 12:54:17;;;;;;;;;;;25.70;99.90;;;;;;5021082;28;19932;-42
2023/08/24 12:56:44;;;;;;;;;;;25.70;99.90;;;;;;5023961;28;19932;-43
2023/08/24 12:59:10;;;;;;;;;;;25.80;99.90;;;;;;5017967;28;19936;-44
2023/08/24 13:01:37;;;;;;;;;;;25.90;99.90;;;;;;5017917;28;19925;-43
2023/08/24 13:04:04;;;;;;;;;;;25.90;99.90;;;;;;5020584;28;19945;-43
2023/08/24 13:06:31;;;;;;;;;;;26.00;99.90;;;;;;5014206;28;19987;-43
2023/08/24 13:08:57;;;;;;;;;;;26.00;99.90;;;;;;4999364;28;19964;-43
2023/08/24 13:11:25;;;;;;;;;;;26.10;99.90;;;;;;5020666;28;19936;-44
2023/08/24 13:13:52;;;;;;;;;;;26.20;99.90;;;;;;5028850;28;20017;-43
2023/08/24 13:16:19;;;;;;;;;;;26.20;99.90;;;;;;5001881;28;19925;-44
2023/08/24 13:18:45;;;;;;;;;;;26.20;99.90;;;;;;5024332;28;19951;-43
2023/08/24 13:21:12;;;;;;;;;;;26.30;99.90;;;;;;5002914;28;20340;-44
2023/08/24 13:23:39;;;;;;;;;;;26.40;99.90;;;;;;5025262;28;20432;-43
2023/08/24 13:26:06;;;;;;;;;;;26.40;99.90;;;;;;5027649;28;20400;-43
2023/08/24 13:28:34;;;;;;;;;;;26.40;99.90;;;;;;5006964;28;19998;-43
2023/08/24 13:31:01;;;;;;;;;;;26.40;99.90;;;;;;5026264;28;19968;-43
2023/08/24 13:33:27;;;;;;;;;;;26.30;99.90;;;;;;5023463;28;19933;-43
2023/08/24 13:35:54;;;;;;;;;;;26.30;99.90;;;;;;5026276;28;19955;-43
2023/08/24 13:38:21;;;;;;;;;;;26.30;99.90;;;;;;5029463;28;20313;-44
2023/08/24 13:40:48;;;;;;;;;;;26.30;99.90;;;;;;5009740;28;20416;-43
2023/08/24 13:43:15;;;;;;;;;;;26.30;99.90;;;;;;5025192;28;19957;-44
2023/08/24 13:45:43;;;;;;;;;;;26.30;99.90;;;;;;5024921;28;19932;-43
2023/08/24 13:48:10;;;;;;;;;;;26.30;99.90;;;;;;5004620;28;19941;-44
2023/08/24 13:50:36;;;;;;;;;;;26.30;99.90;;;;;;5027821;28;19966;-44
2023/08/24 13:53:03;;;;;;;;;;;26.40;99.90;;;;;;5014920;28;19956;-44
2023/08/24 13:55:30;;;;;;;;;;;26.40;99.90;;;;;;5012961;28;20450;-44
2023/08/24 13:57:57;;;;;;;;;;;26.40;99.90;;;;;;5012103;28;19926;-44
2023/08/24 14:00:24;;;;;;;;;;;26.40;99.90;;;;;;5032474;28;19955;-44
2023/08/24 14:02:52;;;;;;;;;;;26.30;99.90;;;;;;4953211;28;1817536;-45
2023/08/24 14:05:18;;;;;;;;;;;26.20;99.90;;;;;;5024911;28;20300;-44
2023/08/24 14:07:45;;;;;;;;;;;26.20;99.90;;;;;;5017180;28;19959;-44
2023/08/24 14:10:12;;;;;;;;;;;26.20;99.90;;;;;;5005612;28;19940;-44
2023/08/24 14:12:38;;;;;;;;;;;26.10;99.90;;;;;;5023427;28;19964;-44
2023/08/24 14:15:06;;;;;;;;;;;26.10;99.90;;;;;;5023068;28;19956;-44